Иваново (Аэротакси)

СКИДКИ НА СМАРТФОНЫ!

Карта отелей и гостиниц, располагающихся рядом с аэропортом Иваново (Аэротакси) :

Иваново (Аэротакси) Ивановская область 56° 57' 57.3588" N, 40° 57' 39.96" E
Иваново (Аэротакси) Ивановская область 56° 57' 57.3588" N, 40° 57' 39.96" E
Код аэродрома ИКАО
HG4S
Код аэродрома RU
ХГ4С
Координаты
N56.96593° E040.96110°
Превышение над уровнем моря
128
Основная полоса
36/18
Курс магнитный
358,3/178,3
Длина основной ВПП
45
Ширина основной ВПП
45
Покрытие основной ВПП
Твёрдое
Освещение ВПП
Нет
Тип: 
Вертодром
Класс аэродрома: 
Принадлежность: 
ГА
Статус: 
Действующий
Сайт: 
E-mail аэродрома: 
Страна: 
Россия
Регион: 
Ивановская область
Город: 
Дополнительная информация: 
Оператор: нет данных.

Скидки на навигаторы!

Найти трансфер

С помощью этой формы Вы можете найти трансфер из аэропорта Иваново (Аэротакси) в город, аэропорт или вокзал:

Погода в аэропортах:

Авиационная погода в Ярославле

Регион: 
Погода METAR: 
UUDL 091530Z 00000MPS 9999 -SHRA BKN036CB 17/15 Q1022 R23/010060 NOSIG RMK QFE758
Время наблюдения
2022-08-09T15:30:00Z
Температура C
17.0
Точка росы
15.0
Направление ветра
0
Скорость ветра (узлы)
0
Метео видимость
6.21
Облачность
BKN
Нижняя граница облачности (футы)
3600
Явления погоды
-SHRA
Условия полета
VFR
Аэропорт подробнее: 
BKN – значительная (рассеянная, разорванная) облачность;
-SHRA - слабый ливневой дождь;

Авиационная погода в Череповце

Регион: 
Погода METAR: 
ULWC 091530Z 04003MPS 9999 TS SCT026CB 19/12 Q1023 R21/010063 NOSIG RMK QFE757/1010
Время наблюдения
2022-08-09T15:30:00Z
Температура C
19.0
Точка росы
12.0
Направление ветра
40
Скорость ветра (узлы)
6
Метео видимость
6.21
Облачность
SCT
Нижняя граница облачности (футы)
2600
Явления погоды
TS
Условия полета
VFR
Аэропорт подробнее: 
SCT – разбросанная отдельная облачность;

Авиационная погода в Ханты-Мансийске

Регион: 
Погода METAR: 
USHH 091530Z 29001MPS 1200 1100SW R24/1200N FU BKN031 22/20 Q1017 R24/010060 TEMPO 0500 FU OVC002
Время наблюдения
2022-08-09T15:30:00Z
Температура C
22.0
Точка росы
20.0
Направление ветра
290
Скорость ветра (узлы)
2
Метео видимость
0.75
Облачность
BKN
Нижняя граница облачности (футы)
3100
Явления погоды
FU
Условия полета
LIFR
Аэропорт подробнее: 
BKN – значительная (рассеянная, разорванная) облачность;
FU – дым (видимость менее 10 км);

Авиационная погода в Сургуте

Регион: 
Погода METAR: 
USRR 091430Z 01004MPS 2300 HZ BKN022 24/19 Q1016 R25/CLRD60 TEMPO 1200 HZ RMK OBST OBSC QFE756
Время наблюдения
2022-08-09T14:30:00Z
Температура C
24.0
Точка росы
19.0
Направление ветра
10
Скорость ветра (узлы)
8
Метео видимость
1.43
Облачность
BKN
Нижняя граница облачности (футы)
2200
Явления погоды
HZ
Условия полета
IFR
Аэропорт подробнее: 
BKN – значительная (рассеянная, разорванная) облачность;
HZ – мгла (видимость менее 10 км);